createdAt,value
2018-12-01T00:01:34.709Z,9.41
2018-12-01T00:04:09.359Z,9.38
2018-12-01T00:06:43.434Z,9.38
2018-12-01T00:09:17.505Z,9.46
2018-12-01T00:11:51.978Z,9.43
2018-12-01T00:14:25.942Z,9.43
2018-12-01T00:17:00.451Z,9.35
2018-12-01T00:19:34.981Z,9.26
2018-12-01T00:22:08.905Z,9.22
2018-12-01T00:24:42.875Z,9.14
2018-12-01T00:27:16.792Z,9.03
2018-12-01T00:29:50.790Z,8.96
2018-12-01T00:32:24.782Z,8.88
2018-12-01T00:34:58.904Z,8.83
2018-12-01T00:37:32.812Z,8.80
2018-12-01T00:40:10.866Z,8.73
2018-12-01T00:42:44.836Z,8.65
2018-12-01T00:45:19.725Z,8.53
2018-12-01T00:47:54.335Z,8.49
2018-12-01T00:50:28.318Z,8.43
2018-12-01T00:53:02.286Z,8.38
2018-12-01T00:55:36.268Z,8.30
2018-12-01T00:58:10.192Z,8.27
2018-12-01T01:00:44.369Z,8.20
2018-12-01T01:03:18.294Z,8.17
2018-12-01T01:05:52.238Z,8.15
2018-12-01T01:08:26.146Z,8.11
2018-12-01T01:11:00.326Z,8.08
2018-12-01T01:13:34.255Z,8.03
2018-12-01T01:16:08.244Z,7.99
2018-12-01T01:18:42.175Z,7.97
2018-12-01T01:21:16.116Z,7.90
2018-12-01T01:23:50.021Z,7.82
2018-12-01T01:26:24.106Z,7.76
2018-12-01T01:28:58.007Z,7.74
2018-12-01T01:31:31.960Z,7.69
2018-12-01T01:34:06.172Z,7.69
2018-12-01T01:36:40.213Z,7.62
2018-12-01T01:39:14.189Z,7.61
2018-12-01T01:41:48.188Z,7.58
2018-12-01T01:44:22.154Z,7.57
2018-12-01T01:46:56.160Z,7.54
2018-12-01T01:49:30.065Z,7.50
2018-12-01T01:52:04.053Z,7.44
2018-12-01T01:54:37.940Z,7.43
2018-12-01T01:57:12.030Z,7.42
2018-12-01T01:59:45.948Z,7.32
2018-12-01T02:02:19.969Z,7.27
2018-12-01T02:04:53.898Z,7.25
2018-12-01T02:07:27.899Z,7.20
2018-12-01T02:10:01.888Z,7.23
2018-12-01T02:12:35.930Z,7.25
2018-12-01T02:15:11.084Z,7.27
2018-12-01T02:17:45.032Z,7.27
2018-12-01T02:20:19.262Z,7.26
2018-12-01T02:22:53.285Z,7.27
2018-12-01T02:25:27.208Z,7.26
2018-12-01T02:28:01.288Z,7.26
2018-12-01T02:30:35.287Z,7.24
2018-12-01T02:33:09.326Z,7.23
2018-12-01T02:35:43.258Z,7.24
2018-12-01T02:38:17.254Z,7.23
2018-12-01T02:40:51.237Z,7.26
2018-12-01T02:43:25.327Z,7.22
2018-12-01T02:46:10.186Z,7.25
2018-12-01T02:48:44.177Z,7.22
2018-12-01T02:51:18.211Z,7.17
2018-12-01T02:53:52.202Z,7.15
2018-12-01T02:56:26.174Z,7.17
2018-12-01T02:59:00.233Z,7.13
2018-12-01T03:01:34.212Z,7.15
2018-12-01T03:04:08.301Z,7.14
2018-12-01T03:06:42.282Z,7.15
2018-12-01T03:09:16.453Z,7.16
2018-12-01T03:11:50.425Z,7.14
2018-12-01T03:14:24.455Z,7.16
2018-12-01T03:16:58.487Z,7.17
2018-12-01T03:19:32.560Z,7.22
2018-12-01T03:22:06.715Z,7.18
2018-12-01T03:24:40.724Z,7.19
2018-12-01T03:27:14.696Z,7.22
2018-12-01T03:29:48.746Z,7.25
2018-12-01T03:32:22.729Z,7.27
2018-12-01T03:34:57.131Z,7.32
2018-12-01T03:37:31.066Z,7.32
2018-12-01T03:40:05.987Z,7.35
2018-12-01T03:42:39.951Z,7.41
2018-12-01T03:45:18.858Z,7.48
2018-12-01T03:47:52.852Z,7.55
2018-12-01T03:50:26.875Z,7.62
2018-12-01T03:53:00.883Z,7.67
2018-12-01T03:55:35.381Z,7.80
2018-12-01T03:58:09.383Z,7.87
2018-12-01T04:00:43.380Z,7.92
2018-12-01T04:03:17.334Z,7.96
2018-12-01T04:05:51.551Z,8.07
2018-12-01T04:08:25.505Z,8.19
2018-12-01T04:10:59.518Z,8.26
2018-12-01T04:13:33.475Z,8.34
2018-12-01T04:16:07.731Z,8.38
2018-12-01T04:18:41.758Z,8.42
2018-12-01T04:21:15.754Z,8.42
2018-12-01T04:23:49.756Z,8.47
2018-12-01T04:26:23.767Z,8.53
2018-12-01T04:28:57.725Z,8.57
2018-12-01T04:31:31.755Z,8.57
2018-12-01T04:34:06.290Z,8.63
2018-12-01T04:36:40.421Z,8.58
2018-12-01T04:39:14.380Z,8.61
2018-12-01T04:41:48.473Z,8.58
2018-12-01T04:44:22.560Z,8.74
2018-12-01T04:46:56.624Z,8.80
2018-12-01T04:49:30.597Z,8.97
2018-12-01T04:52:04.574Z,9.10
2018-12-01T04:54:38.563Z,9.17
2018-12-01T04:57:13.076Z,9.18
2018-12-01T04:59:47.032Z,9.31
2018-12-01T05:02:21.108Z,9.34
2018-12-01T05:04:55.123Z,9.38
2018-12-01T05:07:29.155Z,9.42
2018-12-01T05:10:03.173Z,9.57
2018-12-01T05:12:37.497Z,9.60
2018-12-01T05:15:14.614Z,9.64
2018-12-01T05:17:48.742Z,9.68
2018-12-01T05:20:23.685Z,9.68
2018-12-01T05:22:57.733Z,9.75
2018-12-01T05:25:31.825Z,9.74
2018-12-01T05:28:05.929Z,9.67
2018-12-01T05:30:39.960Z,9.83
2018-12-01T05:33:14.007Z,9.90
2018-12-01T05:35:47.992Z,9.91
2018-12-01T05:38:21.983Z,9.96
2018-12-01T05:40:56.089Z,9.97
2018-12-01T05:43:30.065Z,10.00
2018-12-01T05:46:04.472Z,9.97
2018-12-01T05:48:38.579Z,10.05
2018-12-01T05:51:12.560Z,10.12
2018-12-01T05:53:47.748Z,10.19
2018-12-01T05:56:21.983Z,10.15
2018-12-01T05:58:56.294Z,10.28
2018-12-01T06:01:30.438Z,10.23
2018-12-01T06:04:04.474Z,10.32
2018-12-01T06:06:38.456Z,10.27
2018-12-01T06:09:13.728Z,10.26
2018-12-01T06:11:49.463Z,10.29
2018-12-01T06:14:24.019Z,10.34
2018-12-01T06:16:58.708Z,10.36
2018-12-01T06:19:33.281Z,10.35
2018-12-01T06:22:07.374Z,10.48
2018-12-01T06:24:41.530Z,10.50
2018-12-01T06:27:15.829Z,10.56
2018-12-01T06:29:50.280Z,10.59
2018-12-01T06:32:24.273Z,10.46
2018-12-01T06:34:58.307Z,10.53
2018-12-01T06:37:32.339Z,10.58
2018-12-01T06:40:10.224Z,10.66
2018-12-01T06:42:44.659Z,10.65
2018-12-01T06:45:19.238Z,10.56
2018-12-01T06:47:53.273Z,10.64
2018-12-01T06:50:27.294Z,10.61
2018-12-01T06:53:01.280Z,10.48
2018-12-01T06:55:35.293Z,10.54
2018-12-01T06:58:09.293Z,10.61
2018-12-01T07:00:43.266Z,10.66
2018-12-01T07:03:17.233Z,10.65
2018-12-01T07:05:51.270Z,10.70
2018-12-01T07:08:25.238Z,10.70
2018-12-01T07:10:59.413Z,10.66
2018-12-01T07:13:33.379Z,10.71
2018-12-01T07:16:08.036Z,10.75
2018-12-01T07:18:52.951Z,10.68
2018-12-01T07:21:27.106Z,10.71
2018-12-01T07:24:01.175Z,10.59
2018-12-01T07:26:35.138Z,10.57
2018-12-01T07:29:09.304Z,10.66
2018-12-01T07:31:43.307Z,10.65
2018-12-01T07:34:17.318Z,10.69
2018-12-01T07:36:51.374Z,10.79
2018-12-01T07:39:25.331Z,10.75
2018-12-01T07:41:59.365Z,10.85
2018-12-01T07:44:33.363Z,10.87
2018-12-01T07:47:07.609Z,10.95
2018-12-01T07:49:41.544Z,10.97
2018-12-01T07:52:15.535Z,10.92
2018-12-01T07:54:49.539Z,10.78
2018-12-01T07:57:23.617Z,10.87
2018-12-01T07:59:57.575Z,10.92
2018-12-01T08:02:31.578Z,10.96
2018-12-01T08:05:05.880Z,11.04
2018-12-01T08:07:40.062Z,11.06
2018-12-01T08:10:15.175Z,11.15
2018-12-01T08:12:49.161Z,11.18
2018-12-01T08:15:24.054Z,11.18
2018-12-01T08:17:57.280Z,11.15
2018-12-01T08:20:31.257Z,11.21
2018-12-01T08:23:05.678Z,11.21
2018-12-01T08:25:39.622Z,11.06
2018-12-01T08:28:16.266Z,11.15
2018-12-01T08:30:50.670Z,11.24
2018-12-01T08:33:24.736Z,11.27
2018-12-01T08:35:58.717Z,11.38
2018-12-01T08:38:32.838Z,11.40
2018-12-01T08:41:06.807Z,11.39
2018-12-01T08:43:40.815Z,11.21
2018-12-01T08:46:14.778Z,11.30
2018-12-01T08:48:48.789Z,11.22
2018-12-01T08:51:22.793Z,11.31
2018-12-01T08:53:57.033Z,11.38
2018-12-01T08:56:30.977Z,11.41
2018-12-01T08:59:05.041Z,11.35
2018-12-01T09:01:38.978Z,11.37
2018-12-01T09:04:13.851Z,11.31
2018-12-01T09:06:47.037Z,11.51
2018-12-01T09:09:21.055Z,11.65
2018-12-01T09:11:54.999Z,11.50
2018-12-01T09:14:29.021Z,11.59
2018-12-01T09:17:03.045Z,11.59
2018-12-01T09:19:37.057Z,11.63
2018-12-01T09:22:11.033Z,11.62
2018-12-01T09:24:45.113Z,11.63
2018-12-01T09:27:22.546Z,11.57
2018-12-01T09:29:53.175Z,11.56
2018-12-01T09:32:27.113Z,11.47
2018-12-01T09:35:01.399Z,11.50
2018-12-01T09:37:35.440Z,11.50
2018-12-01T09:40:13.554Z,11.50
2018-12-01T09:42:47.651Z,11.56
2018-12-01T09:45:25.564Z,11.60
2018-12-01T09:47:59.533Z,11.46
2018-12-01T09:50:33.549Z,11.62
2018-12-01T09:53:08.039Z,11.65
2018-12-01T09:55:42.127Z,11.80
2018-12-01T09:58:16.095Z,11.88
2018-12-01T10:00:50.192Z,11.96
2018-12-01T10:03:24.185Z,12.02
2018-12-01T10:05:58.184Z,11.94
2018-12-01T10:08:32.184Z,11.96
2018-12-01T10:11:06.521Z,12.00
2018-12-01T10:13:41.106Z,11.87
2018-12-01T10:16:15.307Z,11.86
2018-12-01T10:18:49.412Z,11.93
2018-12-01T10:21:23.526Z,11.93
2018-12-01T10:23:57.492Z,11.96
2018-12-01T10:26:31.719Z,12.02
2018-12-01T10:29:05.694Z,12.07
2018-12-01T10:31:39.713Z,12.05
2018-12-01T10:34:13.697Z,12.15
2018-12-01T10:36:47.905Z,12.16
2018-12-01T10:39:21.910Z,12.26
2018-12-01T10:41:56.200Z,12.35
2018-12-01T10:44:30.262Z,12.40
2018-12-01T10:47:04.287Z,12.48
2018-12-01T10:49:38.249Z,12.54
2018-12-01T10:52:12.318Z,12.41
2018-12-01T10:54:46.303Z,12.60
2018-12-01T10:57:20.344Z,12.67
2018-12-01T10:59:54.297Z,12.73
2018-12-01T11:02:33.516Z,12.87
2018-12-01T11:05:07.534Z,12.96
2018-12-01T11:07:41.494Z,12.98
2018-12-01T11:10:16.469Z,12.91
2018-12-01T11:12:49.944Z,12.97
2018-12-01T11:15:23.897Z,12.86
2018-12-01T11:17:57.938Z,12.88
2018-12-01T11:20:32.014Z,12.93
2018-12-01T11:23:06.540Z,12.94
2018-12-01T11:25:40.828Z,13.07
2018-12-01T11:28:14.941Z,13.05
2018-12-01T11:30:48.907Z,12.98
2018-12-01T11:33:22.920Z,13.08
2018-12-01T11:35:56.912Z,12.95
2018-12-01T11:38:31.028Z,12.97
2018-12-01T11:41:05.131Z,12.91
2018-12-01T11:43:39.224Z,12.86
2018-12-01T11:46:13.245Z,12.90
2018-12-01T11:48:47.266Z,12.93
2018-12-01T11:51:21.240Z,12.98
2018-12-01T11:53:55.800Z,12.88
2018-12-01T11:56:29.792Z,12.92
2018-12-01T11:59:04.021Z,12.80
2018-12-01T12:01:38.090Z,12.80
2018-12-01T12:04:12.075Z,12.97
2018-12-01T12:06:46.271Z,13.01
2018-12-01T12:09:20.359Z,13.01
2018-12-01T12:11:54.316Z,12.96
2018-12-01T12:14:28.311Z,12.92
2018-12-01T12:17:02.294Z,12.97
2018-12-01T12:19:36.365Z,13.05
2018-12-01T12:22:10.317Z,12.95
2018-12-01T12:24:44.299Z,12.99
2018-12-01T12:27:18.258Z,12.93
2018-12-01T12:29:52.545Z,13.10
2018-12-01T12:32:26.503Z,13.13
2018-12-01T12:35:00.498Z,13.13
2018-12-01T12:37:34.389Z,13.22
2018-12-01T12:40:13.590Z,13.23
2018-12-01T12:42:47.603Z,13.17
2018-12-01T12:45:21.705Z,13.07
2018-12-01T12:47:55.765Z,13.09
2018-12-01T12:50:29.799Z,12.99
2018-12-01T12:53:03.747Z,12.97
2018-12-01T12:55:37.783Z,12.92
2018-12-01T12:58:11.845Z,13.03
2018-12-01T13:00:45.938Z,12.95
2018-12-01T13:03:19.875Z,12.93
2018-12-01T13:05:53.982Z,13.07
2018-12-01T13:08:27.981Z,13.02
2018-12-01T13:11:02.134Z,13.00
2018-12-01T13:13:36.187Z,13.07
2018-12-01T13:16:10.254Z,13.04
2018-12-01T13:18:44.199Z,13.09
2018-12-01T13:21:18.296Z,13.13
2018-12-01T13:23:52.385Z,13.04
2018-12-01T13:26:26.409Z,12.88
2018-12-01T13:29:00.392Z,12.86
2018-12-01T13:31:35.368Z,12.89
2018-12-01T13:34:09.388Z,12.92
2018-12-01T13:36:43.479Z,12.80
2018-12-01T13:39:17.461Z,12.83
2018-12-01T13:41:51.446Z,12.72
2018-12-01T13:44:25.399Z,12.68
2018-12-01T13:46:59.508Z,12.75
2018-12-01T13:49:33.580Z,12.81
2018-12-01T13:52:07.667Z,12.73
2018-12-01T13:54:41.835Z,12.77
2018-12-01T13:57:15.887Z,12.71
2018-12-01T13:59:49.870Z,12.71
2018-12-01T14:02:23.868Z,12.65
2018-12-01T14:04:57.835Z,12.69
2018-12-01T14:07:31.827Z,12.72
2018-12-01T14:10:11.534Z,12.71
2018-12-01T14:12:46.875Z,12.63
2018-12-01T14:15:23.565Z,12.53
2018-12-01T14:17:57.718Z,12.57
2018-12-01T14:20:31.670Z,12.52
2018-12-01T14:23:05.826Z,12.43
2018-12-01T14:25:39.910Z,12.41
2018-12-01T14:28:14.091Z,12.43
2018-12-01T14:30:48.028Z,12.45
2018-12-01T14:33:22.125Z,12.49
2018-12-01T14:35:56.086Z,12.38
2018-12-01T14:38:30.079Z,12.32
2018-12-01T14:41:04.105Z,12.31
2018-12-01T14:43:38.078Z,12.35
2018-12-01T14:46:12.087Z,12.30
2018-12-01T14:48:46.073Z,12.24
2018-12-01T14:51:20.037Z,12.27
2018-12-01T14:53:54.056Z,12.23
2018-12-01T14:56:28.129Z,12.08
2018-12-01T14:59:02.233Z,12.14
2018-12-01T15:01:36.205Z,11.88
2018-12-01T15:04:10.289Z,11.85
2018-12-01T15:06:44.247Z,11.93
2018-12-01T15:09:18.238Z,12.00
2018-12-01T15:11:52.169Z,11.89
2018-12-01T15:14:26.170Z,11.96
2018-12-01T15:17:00.136Z,11.93
2018-12-01T15:19:34.147Z,11.91
2018-12-01T15:22:08.126Z,11.86
2018-12-01T15:24:42.136Z,11.80
2018-12-01T15:27:16.101Z,11.79
2018-12-01T15:29:50.106Z,11.74
2018-12-01T15:32:24.149Z,11.69
2018-12-01T15:34:58.184Z,11.59
2018-12-01T15:37:32.250Z,11.52
2018-12-01T15:40:10.175Z,11.47
2018-12-01T15:42:44.188Z,11.44
2018-12-01T15:45:20.178Z,11.39
2018-12-01T15:47:54.200Z,11.32
2018-12-01T15:50:28.281Z,11.28
2018-12-01T15:53:02.260Z,11.24
2018-12-01T15:55:36.391Z,11.18
2018-12-01T15:58:10.407Z,11.09
2018-12-01T16:00:45.019Z,11.04
2018-12-01T16:03:19.055Z,10.97
2018-12-01T16:05:53.064Z,10.90
2018-12-01T16:08:27.058Z,10.81
2018-12-01T16:11:01.100Z,10.76
2018-12-01T16:13:35.064Z,10.68
2018-12-01T16:16:10.113Z,10.59
2018-12-01T16:18:44.107Z,10.53
2018-12-01T16:21:18.252Z,10.45
2018-12-01T16:23:52.313Z,10.40
2018-12-01T16:26:26.308Z,10.32
2018-12-01T16:29:00.272Z,10.24
2018-12-01T16:31:34.390Z,10.18
2018-12-01T16:34:08.418Z,10.18
2018-12-01T16:36:43.089Z,10.14
2018-12-01T16:39:17.074Z,10.10
2018-12-01T16:41:51.430Z,10.07
2018-12-01T16:44:25.504Z,10.00
2018-12-01T16:46:59.511Z,9.97
2018-12-01T16:49:33.575Z,9.90
2018-12-01T16:52:07.897Z,9.86
2018-12-01T16:54:41.893Z,9.76
2018-12-01T16:57:15.937Z,9.66
2018-12-01T16:59:49.918Z,9.56
2018-12-01T17:02:23.950Z,9.49
2018-12-01T17:04:57.897Z,9.39
2018-12-01T17:07:32.564Z,9.30
2018-12-01T17:10:11.312Z,9.30
2018-12-01T17:12:46.083Z,9.21
2018-12-01T17:15:21.028Z,9.22
2018-12-01T17:17:55.077Z,9.19
2018-12-01T17:20:29.046Z,9.25
2018-12-01T17:23:03.236Z,9.26
2018-12-01T17:25:37.237Z,9.26
2018-12-01T17:28:13.115Z,9.27
2018-12-01T17:30:47.186Z,9.23
2018-12-01T17:33:21.239Z,9.31
2018-12-01T17:35:55.252Z,9.28
2018-12-01T17:38:29.322Z,9.34
2018-12-01T17:41:11.268Z,9.37
2018-12-01T17:43:50.859Z,9.39
2018-12-01T17:46:24.816Z,9.41
2018-12-01T17:48:58.926Z,9.49
2018-12-01T17:51:32.902Z,9.56
2018-12-01T17:54:11.984Z,9.55
2018-12-01T17:56:46.031Z,9.50
2018-12-01T17:59:20.279Z,9.56
2018-12-01T18:01:54.273Z,9.63
2018-12-01T18:04:28.234Z,9.59
2018-12-01T18:07:02.183Z,9.66
2018-12-01T18:09:36.188Z,9.68
2018-12-01T18:12:10.366Z,9.71
2018-12-01T18:14:44.449Z,9.68
2018-12-01T18:17:18.423Z,9.67
2018-12-01T18:19:52.584Z,9.64
2018-12-01T18:22:26.557Z,9.63
2018-12-01T18:25:00.564Z,9.62
2018-12-01T18:27:34.546Z,9.56
2018-12-01T18:30:13.022Z,9.54
2018-12-01T18:32:48.020Z,9.49
2018-12-01T18:35:22.006Z,9.48
2018-12-01T18:37:56.020Z,9.62
2018-12-01T18:40:31.432Z,9.56
2018-12-01T18:43:07.081Z,9.53
2018-12-01T18:45:46.208Z,9.63
2018-12-01T18:48:21.059Z,9.63
2018-12-01T18:50:56.180Z,9.67
2018-12-01T18:53:30.379Z,9.69
2018-12-01T18:56:04.400Z,9.74
2018-12-01T18:58:41.237Z,9.68
2018-12-01T19:01:15.863Z,9.68
2018-12-01T19:03:50.272Z,9.71
2018-12-01T19:06:24.779Z,9.80
2018-12-01T19:08:58.751Z,9.75
2018-12-01T19:11:32.849Z,9.86
2018-12-01T19:14:08.312Z,9.86
2018-12-01T19:16:42.484Z,9.86
2018-12-01T19:19:16.473Z,9.94
2018-12-01T19:21:50.541Z,9.93
2018-12-01T19:24:25.631Z,9.99
2018-12-01T19:26:59.813Z,10.07
2018-12-01T19:29:35.042Z,10.07
2018-12-01T19:32:09.227Z,10.13
2018-12-01T19:34:43.240Z,10.20
2018-12-01T19:37:17.243Z,10.18
2018-12-01T19:39:51.207Z,10.20
2018-12-01T19:42:25.204Z,10.17
2018-12-01T19:44:59.191Z,10.08
2018-12-01T19:47:33.214Z,10.04
2018-12-01T19:50:13.166Z,10.11
2018-12-01T19:52:47.494Z,10.17
2018-12-01T19:55:23.100Z,10.09
2018-12-01T19:57:58.032Z,10.04
2018-12-01T20:00:33.108Z,10.12
2018-12-01T20:03:09.738Z,10.13
2018-12-01T20:05:44.780Z,10.16
2018-12-01T20:08:19.947Z,10.16
2018-12-01T20:10:58.167Z,10.08
2018-12-01T20:13:44.827Z,10.12
2018-12-01T20:16:24.198Z,10.15
2018-12-01T20:18:58.307Z,10.15
2018-12-01T20:21:32.352Z,10.18
2018-12-01T20:24:07.807Z,10.23
2018-12-01T20:26:42.893Z,10.24
2018-12-01T20:29:16.988Z,10.16
2018-12-01T20:31:50.958Z,10.21
2018-12-01T20:34:25.082Z,10.24
2018-12-01T20:37:02.548Z,10.20
2018-12-01T20:39:39.618Z,10.28
2018-12-01T20:42:13.581Z,10.43
2018-12-01T20:44:47.625Z,10.33
2018-12-01T20:47:21.585Z,10.43
2018-12-01T20:49:55.643Z,10.47
2018-12-01T20:52:29.681Z,10.43
2018-12-01T20:55:04.029Z,10.40
2018-12-01T20:57:38.001Z,10.50
2018-12-01T21:00:13.160Z,10.50
2018-12-01T21:02:47.122Z,10.48
2018-12-01T21:05:23.355Z,10.66
2018-12-01T21:08:02.097Z,10.58
2018-12-01T21:10:33.270Z,10.68
2018-12-01T21:13:07.604Z,10.66
2018-12-01T21:15:41.884Z,10.64
2018-12-01T21:18:15.829Z,10.74
2018-12-01T21:20:49.807Z,10.70
2018-12-01T21:23:23.855Z,10.73
2018-12-01T21:25:57.870Z,10.70
2018-12-01T21:28:31.872Z,10.81
2018-12-01T21:31:06.900Z,10.77
2018-12-01T21:33:41.299Z,10.77
2018-12-01T21:36:16.414Z,10.77
2018-12-01T21:38:51.107Z,10.71
2018-12-01T21:41:25.168Z,10.74
2018-12-01T21:43:59.176Z,10.80
2018-12-01T21:46:33.259Z,10.76
2018-12-01T21:49:08.282Z,10.65
2018-12-01T21:51:42.295Z,10.73
2018-12-01T21:54:16.353Z,10.69
2018-12-01T21:56:50.354Z,10.73
2018-12-01T21:59:24.465Z,10.87
2018-12-01T22:01:58.471Z,10.87
2018-12-01T22:04:32.446Z,10.86
2018-12-01T22:07:06.442Z,10.83
2018-12-01T22:09:40.437Z,10.97
2018-12-01T22:12:14.660Z,11.01
2018-12-01T22:14:48.599Z,10.91
2018-12-01T22:17:22.639Z,10.97
2018-12-01T22:19:56.607Z,11.05
2018-12-01T22:22:30.584Z,10.98
2018-12-01T22:25:04.622Z,10.93
2018-12-01T22:27:38.773Z,10.85
2018-12-01T22:30:17.587Z,10.90
2018-12-01T22:32:54.252Z,11.02
2018-12-01T22:35:29.491Z,11.02
2018-12-01T22:38:03.452Z,11.03
2018-12-01T22:40:37.699Z,10.85
2018-12-01T22:43:11.837Z,10.94
2018-12-01T22:45:45.823Z,11.00
2018-12-01T22:48:21.465Z,10.91
2018-12-01T22:50:55.438Z,10.86
2018-12-01T22:53:29.483Z,10.93
2018-12-01T22:56:03.663Z,11.02
2018-12-01T22:58:37.682Z,10.93
2018-12-01T23:01:11.675Z,10.95
2018-12-01T23:03:45.665Z,10.87
2018-12-01T23:06:19.687Z,11.01
2018-12-01T23:08:53.875Z,10.92
2018-12-01T23:11:27.812Z,10.91
2018-12-01T23:14:01.918Z,10.87
2018-12-01T23:16:35.888Z,10.94
2018-12-01T23:19:10.248Z,10.99
2018-12-01T23:21:44.393Z,10.90
2018-12-01T23:24:18.416Z,10.98
2018-12-01T23:26:52.524Z,11.09
2018-12-01T23:29:26.569Z,11.10
2018-12-01T23:32:00.527Z,11.11
2018-12-01T23:34:34.596Z,11.12
2018-12-01T23:37:08.561Z,11.15
2018-12-01T23:39:42.661Z,11.12
2018-12-01T23:42:16.687Z,11.18
2018-12-01T23:44:50.970Z,11.24
2018-12-01T23:47:25.070Z,11.29
2018-12-01T23:49:59.162Z,11.19
2018-12-01T23:52:33.257Z,11.18
2018-12-01T23:55:10.515Z,11.19
2018-12-01T23:57:44.560Z,11.23
